Time;durP1;ratioP1;P1;durP2;ratioP2;P2;SDS_P1;SDS_P2;PMS_P1;PMS_P2;Temp;Humidity;BMP_temperature;BMP_pressure;BME280_temperature;BME280_humidity;BME280_pressure;Samples;Min_cycle;Max_cycle;Signal;HPM_P1;HPM_P2
2022/07/13 00:02:05;;;;;;;2.08;1.85;;;;;;;17.42;74.09;99384.00;4921760;28;103268;-62
2022/07/13 00:04:33;;;;;;;1.80;1.58;;;;;;;17.52;73.77;99384.00;4932777;28;103344;-62
2022/07/13 00:07:01;;;;;;;2.65;1.90;;;;;;;17.44;73.65;99390.06;4904632;28;102730;-62
2022/07/13 00:09:29;;;;;;;2.65;1.40;;;;;;;17.66;72.54;99392.50;4920808;28;102735;-62
2022/07/13 00:11:59;;;;;;;1.48;1.25;;;;;;;17.81;71.47;99391.13;4920657;28;103990;-62
2022/07/13 00:14:27;;;;;;;2.88;1.40;;;;;;;17.74;72.01;99389.16;4919108;28;103216;-60
2022/07/13 00:16:55;;;;;;;2.47;1.40;;;;;;;17.70;72.33;99388.59;4920746;28;102626;-61
2022/07/13 00:19:23;;;;;;;1.88;1.50;;;;;;;17.60;73.00;99382.38;4932755;28;102688;-61
2022/07/13 00:21:52;;;;;;;3.05;1.80;;;;;;;17.54;73.13;99390.97;4921693;28;104064;-62
2022/07/13 00:24:23;;;;;;;1.95;1.52;;;;;;;17.52;72.82;99387.53;4922943;28;103188;-61
2022/07/13 00:26:51;;;;;;;1.63;1.40;;;;;;;17.51;72.96;99382.34;4918975;28;102602;-61
2022/07/13 00:29:20;;;;;;;1.30;1.20;;;;;;;17.63;71.91;99384.78;4902803;28;104334;-61
2022/07/13 00:31:49;;;;;;;1.95;1.70;;;;;;;17.67;71.56;99383.53;4933315;28;103371;-61
2022/07/13 00:34:17;;;;;;;1.60;1.50;;;;;;;17.63;72.21;99387.44;4901677;28;103280;-61
2022/07/13 00:36:45;;;;;;;2.63;1.45;;;;;;;17.44;73.44;99383.84;4922331;28;102734;-61
2022/07/13 00:39:13;;;;;;;2.20;1.30;;;;;;;17.42;73.44;99391.19;4905571;28;103907;-61
2022/07/13 00:41:45;;;;;;;1.80;1.60;;;;;;;17.21;74.68;99385.91;4919588;28;103380;-61
2022/07/13 00:44:15;;;;;;;1.70;1.40;;;;;;;17.34;73.50;99387.38;4920322;28;103224;-61
2022/07/13 00:46:52;;;;;;;2.05;1.20;;;;;;;17.45;72.76;99388.22;4921982;28;103922;-61
2022/07/13 00:49:22;;;;;;;1.80;1.23;;;;;;;17.43;72.89;99388.38;4933570;28;103048;-61
2022/07/13 00:51:50;;;;;;;1.90;1.33;;;;;;;17.42;73.13;99389.34;4918014;28;103245;-62
2022/07/13 00:54:28;;;;;;;2.25;1.30;;;;;;;17.29;74.18;99383.44;4934443;28;103269;-61
2022/07/13 00:56:57;;;;;;;2.30;1.75;;;;;;;17.07;75.39;99384.47;4918335;28;102610;-61
2022/07/13 00:59:26;;;;;;;3.70;1.73;;;;;;;17.09;75.11;99387.03;4903820;28;102714;-61
2022/07/13 01:01:55;;;;;;;1.83;1.63;;;;;;;17.03;75.57;99382.22;4914113;28;103272;-61
2022/07/13 01:04:24;;;;;;;1.60;1.50;;;;;;;17.06;74.74;99381.94;4936311;28;103258;-61
2022/07/13 01:06:53;;;;;;;1.90;1.67;;;;;;;17.10;74.35;99370.84;4919286;28;102661;-61
2022/07/13 01:09:23;;;;;;;1.40;1.30;;;;;;;17.18;74.00;99375.50;4904209;28;102700;-61
2022/07/13 01:11:52;;;;;;;1.27;1.17;;;;;;;17.24;73.68;99373.13;4921143;28;103980;-61
2022/07/13 01:14:21;;;;;;;1.52;1.17;;;;;;;17.26;73.73;99367.69;4921462;28;103200;-60
2022/07/13 01:16:49;;;;;;;2.38;1.60;;;;;;;17.07;74.75;99368.44;4903066;28;102694;-61
2022/07/13 01:19:19;;;;;;;1.35;1.25;;;;;;;17.14;74.49;99369.59;4918582;28;102740;-60
2022/07/13 01:21:59;;;;;;;1.30;1.20;;;;;;;17.13;74.70;99367.06;4923055;28;103298;-59
2022/07/13 01:24:30;;;;;;;1.73;1.30;;;;;;;17.16;73.99;99362.31;4934322;28;103178;-60
2022/07/13 01:27:00;;;;;;;1.60;1.20;;;;;;;17.20;73.82;99357.53;4921035;28;102631;-60
2022/07/13 01:29:30;;;;;;;1.40;1.20;;;;;;;17.25;73.67;99356.16;4921133;28;102628;-60
2022/07/13 01:32:00;;;;;;;1.73;1.50;;;;;;;17.26;73.93;99362.34;4917884;28;103304;-60
2022/07/13 01:34:30;;;;;;;1.13;1.02;;;;;;;17.29;74.24;99364.75;4900710;28;103070;-61
2022/07/13 01:36:58;;;;;;;1.38;1.27;;;;;;;17.25;75.21;99365.97;4932445;28;102709;-60
2022/07/13 01:39:28;;;;;;;1.85;1.13;;;;;;;17.37;74.43;99364.91;4921391;28;102592;-60
2022/07/13 01:41:56;;;;;;;1.77;1.30;;;;;;;17.44;74.74;99365.16;4929426;28;103339;-61
2022/07/13 01:44:24;;;;;;;2.15;1.23;;;;;;;17.48;73.89;99367.44;4920838;28;103144;-61
2022/07/13 01:46:53;;;;;;;1.70;1.23;;;;;;;17.49;74.02;99361.09;4918913;28;102713;-59
2022/07/13 01:49:22;;;;;;;2.13;1.80;;;;;;;17.45;74.70;99359.69;4918171;28;102753;-58
2022/07/13 01:51:52;;;;;;;1.80;1.42;;;;;;;17.48;74.11;99351.41;4932499;28;103320;-61
2022/07/13 01:54:21;;;;;;;2.38;1.20;;;;;;;17.51;73.78;99360.97;4931736;28;103089;-59
2022/07/13 01:56:50;;;;;;;2.67;1.45;;;;;;;17.52;73.79;99358.16;4900991;28;102941;-59
2022/07/13 01:59:19;;;;;;;2.25;1.30;;;;;;;17.53;73.69;99354.50;4933480;28;103792;-59
2022/07/13 02:01:49;;;;;;;1.83;1.63;;;;;;;17.50;74.32;99352.09;4916097;28;103935;-59
2022/07/13 02:04:17;;;;;;;1.90;1.70;;;;;;;17.36;75.49;99353.34;4936497;28;103202;-59
2022/07/13 02:06:45;;;;;;;2.00;1.45;;;;;;;17.38;75.41;99355.88;4900171;28;102854;-59
2022/07/13 02:09:13;;;;;;;2.35;1.65;;;;;;;17.49;75.31;99350.41;4916354;28;104148;-60
2022/07/13 02:11:41;;;;;;;1.95;1.48;;;;;;;17.61;75.21;99341.31;4934499;28;104246;-60
2022/07/13 02:14:12;;;;;;;1.95;1.40;;;;;;;17.68;75.16;99334.47;4902638;28;103292;-59
2022/07/13 02:16:41;;;;;;;1.58;1.20;;;;;;;17.73;74.86;99336.69;4901667;28;102702;-60
2022/07/13 02:19:09;;;;;;;2.88;1.42;;;;;;;17.70;75.47;99324.47;4902488;28;102777;-60
2022/07/13 02:21:37;;;;;;;1.67;1.50;;;;;;;17.79;75.18;99320.09;4931915;28;103231;-60
2022/07/13 02:24:06;;;;;;;1.85;1.10;;;;;;;17.82;74.95;99317.97;4921187;28;103207;-59
2022/07/13 02:26:33;;;;;;;1.27;1.17;;;;;;;17.82;75.33;99322.50;4933433;28;102806;-59
2022/07/13 02:29:01;;;;;;;1.63;1.50;;;;;;;17.84;75.56;99312.50;4897894;28;102677;-60
2022/07/13 02:31:33;;;;;;;1.50;1.40;;;;;;;17.88;75.51;99300.53;4902351;28;103413;-60
2022/07/13 02:34:02;;;;;;;1.58;1.15;;;;;;;17.86;75.41;99303.34;4920519;28;103211;-59
2022/07/13 02:36:30;;;;;;;2.63;1.65;;;;;;;17.77;76.02;99309.53;4919604;28;102597;-59
2022/07/13 02:38:58;;;;;;;2.28;1.75;;;;;;;17.77;76.66;99304.19;4918901;28;102725;-59
2022/07/13 02:41:26;;;;;;;4.32;2.00;;;;;;;17.74;76.90;99304.47;4901721;28;103332;-60
2022/07/13 02:43:56;;;;;;;2.65;1.50;;;;;;;17.85;76.23;99300.81;4935049;28;103273;-60
2022/07/13 02:46:25;;;;;;;2.50;1.92;;;;;;;17.78;76.29;99303.22;4917412;28;102646;-60
2022/07/13 02:48:55;;;;;;;1.77;1.67;;;;;;;17.73;76.45;99313.50;4934288;28;102974;-59
2022/07/13 02:51:26;;;;;;;2.53;1.70;;;;;;;17.86;75.77;99310.50;4933619;28;103449;-58
2022/07/13 02:53:54;;;;;;;2.45;1.60;;;;;;;17.91;75.53;99306.44;4899883;28;103319;-58
2022/07/13 02:56:24;;;;;;;2.30;1.73;;;;;;;17.86;75.98;99303.34;4901649;28;102751;-62
2022/07/13 02:58:52;;;;;;;2.00;1.65;;;;;;;17.89;75.82;99307.56;4900722;28;102788;-62
2022/07/13 03:01:20;;;;;;;3.33;1.80;;;;;;;17.92;75.91;99296.59;4897946;28;103842;-61
2022/07/13 03:03:48;;;;;;;2.60;1.70;;;;;;;17.98;75.63;99303.19;4891898;28;103571;-61
2022/07/13 03:06:19;;;;;;;1.73;1.60;;;;;;;17.94;75.84;99298.13;4922829;28;103061;-61
2022/07/13 03:08:47;;;;;;;2.20;1.33;;;;;;;17.98;75.30;99311.22;4922959;28;102722;-61
2022/07/13 03:11:15;;;;;;;3.50;1.58;;;;;;;17.95;75.82;99305.16;4900778;28;103279;-61
2022/07/13 03:13:43;;;;;;;1.90;1.67;;;;;;;17.95;75.78;99302.50;4900973;28;103194;-61
2022/07/13 03:16:13;;;;;;;2.72;1.92;;;;;;;17.95;75.66;99302.50;4932570;28;102747;-61
2022/07/13 03:18:42;;;;;;;2.38;1.45;;;;;;;17.94;75.73;99300.81;4919725;28;102699;-61
2022/07/13 03:21:12;;;;;;;1.52;1.35;;;;;;;17.93;75.66;99295.63;4903904;28;103078;-68
2022/07/13 03:23:42;;;;;;;1.65;1.55;;;;;;;18.47;73.92;99297.56;4931934;28;103184;-59
2022/07/13 03:26:10;;;;;;;2.00;1.80;;;;;;;18.69;72.97;99297.25;4900569;28;102975;-58
2022/07/13 03:28:38;;;;;;;1.83;1.60;;;;;;;18.88;71.96;99291.81;4898112;28;103177;-58
2022/07/13 03:31:06;;;;;;;3.10;1.88;;;;;;;18.98;71.09;99295.25;4930850;28;103027;-59
2022/07/13 03:33:35;;;;;;;3.03;2.00;;;;;;;18.99;71.58;99294.28;4903799;28;105341;-59
2022/07/13 03:36:04;;;;;;;2.72;1.92;;;;;;;19.10;71.24;99293.22;4901031;28;103082;-59
2022/07/13 03:38:32;;;;;;;3.20;2.10;;;;;;;19.15;70.69;99298.97;4903323;28;104100;-59
2022/07/13 03:41:01;;;;;;;2.10;1.90;;;;;;;19.28;70.16;99294.09;4916885;28;103275;-58
2022/07/13 03:43:30;;;;;;;2.13;1.88;;;;;;;19.15;70.46;99298.13;4904945;28;103410;-59
2022/07/13 03:45:58;;;;;;;2.70;2.10;;;;;;;19.21;70.78;99302.88;4934074;28;102749;-59
2022/07/13 03:48:26;;;;;;;2.33;2.08;;;;;;;19.16;70.77;99297.97;4902082;28;102719;-59
2022/07/13 03:50:54;;;;;;;2.72;2.20;;;;;;;19.25;70.42;99291.72;4930624;28;103397;-59
2022/07/13 03:53:22;;;;;;;2.50;2.05;;;;;;;19.32;69.82;99294.63;4902809;28;103262;-60
2022/07/13 03:55:51;;;;;;;2.40;2.17;;;;;;;19.25;70.29;99298.91;4900895;28;102958;-60
2022/07/13 03:58:20;;;;;;;2.63;2.28;;;;;;;19.15;70.48;99298.97;4904335;28;102864;-58
2022/07/13 04:00:50;;;;;;;2.80;2.30;;;;;;;19.26;70.04;99301.44;4920365;28;103266;-59
2022/07/13 04:03:19;;;;;;;2.40;2.00;;;;;;;19.39;69.63;99295.75;4904057;28;103222;-59
2022/07/13 04:05:47;;;;;;;2.33;1.80;;;;;;;19.45;68.85;99287.94;4921415;28;102822;-59
2022/07/13 04:08:15;;;;;;;2.05;1.65;;;;;;;19.41;69.01;99294.59;4900592;28;102677;-59
2022/07/13 04:10:43;;;;;;;2.40;2.08;;;;;;;19.17;69.90;99299.69;4903165;28;104414;-59
2022/07/13 04:13:13;;;;;;;1.80;1.70;;;;;;;19.35;69.13;99289.81;4903194;28;105584;-59
2022/07/13 04:15:44;;;;;;;1.83;1.65;;;;;;;19.36;69.20;99286.16;4903481;28;103089;-60
2022/07/13 04:18:14;;;;;;;3.03;2.03;;;;;;;19.41;69.07;99283.03;4903945;28;103032;-60
2022/07/13 04:20:43;;;;;;;2.45;1.90;;;;;;;19.34;69.43;99274.72;4918610;28;105622;-58
2022/07/13 04:23:11;;;;;;;2.10;1.90;;;;;;;19.27;69.88;99270.13;4931355;28;105269;-58
2022/07/13 04:25:39;;;;;;;2.10;1.90;;;;;;;19.39;69.42;99260.91;4902025;28;102748;-58
2022/07/13 04:28:07;;;;;;;2.10;1.90;;;;;;;19.50;68.76;99266.91;4919304;28;103945;-58
2022/07/13 04:30:35;;;;;;;2.13;1.83;;;;;;;19.56;68.49;99265.44;4932359;28;104476;-59
2022/07/13 04:33:06;;;;;;;2.80;2.20;;;;;;;19.28;69.58;99272.69;4892472;28;103366;-59
2022/07/13 04:35:34;;;;;;;3.17;2.50;;;;;;;19.18;69.73;99263.00;4927322;28;102854;-59
2022/07/13 04:38:02;;;;;;;3.27;2.30;;;;;;;18.81;71.25;99271.97;4894509;28;102921;-58
2022/07/13 04:40:30;;;;;;;3.03;2.17;;;;;;;19.14;70.49;99269.66;4913371;28;103779;-59
2022/07/13 04:43:00;;;;;;;3.10;2.43;;;;;;;19.15;70.49;99272.19;4921272;28;103363;-58
2022/07/13 04:45:28;;;;;;;2.95;2.30;;;;;;;19.26;69.96;99268.44;4903994;28;103140;-59
2022/07/13 04:47:56;;;;;;;2.92;2.35;;;;;;;19.22;70.06;99272.44;4903423;28;102813;-58
2022/07/13 04:50:28;;;;;;;2.50;2.10;;;;;;;19.48;69.06;99270.72;4899688;28;103275;-59
2022/07/13 04:52:56;;;;;;;2.70;2.17;;;;;;;19.52;68.68;99277.44;4911040;28;103914;-58
2022/07/13 04:55:26;;;;;;;2.92;2.30;;;;;;;19.48;68.96;99278.75;4902919;28;102700;-58
2022/07/13 04:57:55;;;;;;;3.60;2.20;;;;;;;19.54;68.56;99284.34;4911030;28;102747;-58
2022/07/13 05:00:23;;;;;;;4.57;2.60;;;;;;;19.36;69.18;99287.97;4918660;28;103420;-58
2022/07/13 05:02:52;;;;;;;3.20;2.60;;;;;;;19.59;68.54;99292.75;4930462;28;103318;-59
2022/07/13 05:05:21;;;;;;;4.53;2.15;;;;;;;19.74;68.12;99284.16;4914877;28;103064;-58
2022/07/13 05:07:51;;;;;;;2.97;2.30;;;;;;;19.64;68.16;99281.59;4909211;28;103007;-59
2022/07/13 05:10:30;;;;;;;4.40;2.60;;;;;;;19.47;68.59;99282.44;4895600;28;104160;-58
2022/07/13 05:13:14;;;;;;;2.53;2.33;;;;;;;19.69;68.38;99279.28;4896710;28;103290;-59
2022/07/13 05:15:54;;;;;;;3.05;2.10;;;;;;;19.62;68.22;99286.25;4898109;28;102805;-59
2022/07/13 05:18:23;;;;;;;2.47;2.08;;;;;;;19.81;68.41;99279.88;4900939;28;102888;-58
2022/07/13 05:20:55;;;;;;;4.75;2.17;;;;;;;19.37;69.52;99290.50;4907245;28;103283;-59
2022/07/13 05:23:27;;;;;;;4.30;1.98;;;;;;;19.06;70.21;99295.34;4900185;28;103246;-59
2022/07/13 05:25:55;;;;;;;2.13;1.92;;;;;;;19.08;70.53;99296.06;4900263;28;103018;-58
2022/07/13 05:28:24;;;;;;;4.45;1.90;;;;;;;19.26;69.76;99284.50;4901869;28;102918;-59
2022/07/13 05:30:55;;;;;;;2.78;1.80;;;;;;;19.48;69.12;99278.75;4900525;28;103293;-59
2022/07/13 05:33:24;;;;;;;3.38;1.90;;;;;;;19.42;69.60;99280.22;4900673;28;105176;-59
2022/07/13 05:35:54;;;;;;;4.43;2.00;;;;;;;19.50;69.13;99285.66;4900467;28;102656;-59
2022/07/13 05:38:23;;;;;;;4.05;1.90;;;;;;;19.69;68.40;99287.31;4901010;28;102842;-58
2022/07/13 05:40:56;;;;;;;2.45;2.20;;;;;;;19.73;69.12;99291.38;4904589;28;103469;-59
2022/07/13 05:43:26;;;;;;;3.45;2.13;;;;;;;19.55;69.11;99275.31;4895552;28;103129;-59
2022/07/13 05:45:54;;;;;;;3.30;2.22;;;;;;;19.58;69.40;99274.16;4916720;28;102640;-59
2022/07/13 05:48:23;;;;;;;2.75;2.00;;;;;;;19.78;68.74;99267.63;4922700;28;103146;-59
2022/07/13 05:50:51;;;;;;;3.00;2.03;;;;;;;19.90;68.31;99268.22;4924488;28;104082;-59
2022/07/13 05:53:39;;;;;;;4.40;2.50;;;;;;;19.77;68.50;99270.47;4901483;28;103245;-59
2022/07/13 05:56:09;;;;;;;3.17;1.98;;;;;;;19.79;68.45;99280.03;4920315;28;103021;-58
2022/07/13 05:58:37;;;;;;;3.25;2.10;;;;;;;19.92;67.94;99288.53;4921888;28;102674;-59
2022/07/13 06:01:05;;;;;;;4.88;2.40;;;;;;;19.96;68.59;99283.66;4916285;28;104161;-58
2022/07/13 06:03:36;;;;;;;3.78;2.03;;;;;;;20.01;67.78;99276.03;4928285;28;104948;-59
2022/07/13 06:06:04;;;;;;;4.38;2.10;;;;;;;20.01;68.33;99276.88;4923036;28;102692;-59
2022/07/13 06:08:32;;;;;;;4.55;2.25;;;;;;;20.16;67.73;99269.91;4920490;28;104001;-58
2022/07/13 06:10:59;;;;;;;4.88;2.20;;;;;;;20.19;67.24;99266.06;4924806;28;103479;-59
2022/07/13 06:13:31;;;;;;;3.95;1.88;;;;;;;20.37;66.89;99266.06;4931974;28;103336;-60
2022/07/13 06:15:59;;;;;;;2.83;2.07;;;;;;;20.72;66.49;99257.84;4898997;28;102987;-61
2022/07/13 06:18:27;;;;;;;2.15;1.58;;;;;;;20.75;65.66;99260.19;4904028;28;104127;-60
2022/07/13 06:20:58;;;;;;;3.67;2.10;;;;;;;20.68;65.44;99264.53;4917459;28;103465;-59
2022/07/13 06:23:26;;;;;;;2.42;1.70;;;;;;;20.75;66.00;99262.88;4902135;28;103204;-60
2022/07/13 06:25:55;;;;;;;8.77;2.40;;;;;;;20.72;65.61;99265.88;4926037;28;102652;-60
2022/07/13 06:28:23;;;;;;;4.93;2.05;;;;;;;20.63;65.30;99282.97;4922819;28;104122;-60
2022/07/13 06:30:52;;;;;;;3.70;2.13;;;;;;;21.13;64.63;99275.81;4920315;28;103957;-60
2022/07/13 06:33:20;;;;;;;2.70;1.90;;;;;;;21.46;62.73;99267.81;4921851;28;103256;-60
2022/07/13 06:35:48;;;;;;;1.83;1.67;;;;;;;21.82;61.99;99272.72;4921749;28;102673;-61
2022/07/13 06:38:16;;;;;;;2.25;1.80;;;;;;;22.06;61.81;99274.59;4921639;28;102666;-59
2022/07/13 06:40:44;;;;;;;3.23;2.17;;;;;;;22.01;62.09;99266.16;4896814;28;104289;-59
2022/07/13 06:43:12;;;;;;;2.65;1.63;;;;;;;22.36;61.42;99273.88;4921410;28;103231;-59
2022/07/13 06:45:42;;;;;;;3.70;2.10;;;;;;;22.26;62.08;99278.56;4919677;28;102634;-59
2022/07/13 06:48:11;;;;;;;4.25;2.15;;;;;;;22.48;60.89;99279.72;4900810;28;102819;-59
2022/07/13 06:50:40;;;;;;;4.53;2.63;;;;;;;22.49;60.30;99281.38;4897657;28;104211;-58
2022/07/13 06:53:08;;;;;;;4.32;2.35;;;;;;;22.85;59.88;99269.16;4919107;28;103206;-58
2022/07/13 06:55:36;;;;;;;2.42;1.90;;;;;;;23.06;59.27;99276.66;4918502;28;102942;-59
2022/07/13 06:58:03;;;;;;;3.60;2.25;;;;;;;23.08;59.07;99282.72;4917994;28;102657;-59
2022/07/13 07:00:31;;;;;;;3.10;2.00;;;;;;;23.39;58.55;99280.03;4916901;28;103311;-59
2022/07/13 07:02:59;;;;;;;5.35;2.20;;;;;;;23.40;58.35;99274.47;4918973;28;103207;-59
2022/07/13 07:05:29;;;;;;;4.22;1.85;;;;;;;23.75;58.23;99283.81;4917722;28;102728;-60
2022/07/13 07:07:59;;;;;;;3.35;1.80;;;;;;;23.80;56.67;99284.13;4920366;28;102642;-61
2022/07/13 07:10:27;;;;;;;4.75;2.10;;;;;;;23.80;56.92;99277.91;4917777;28;104316;-60
2022/07/13 07:13:00;;;;;;;5.00;2.00;;;;;;;24.30;55.94;99270.03;4901684;28;103227;-61
2022/07/13 07:15:28;;;;;;;3.03;1.67;;;;;;;24.37;55.82;99268.28;4899453;28;102817;-61
2022/07/13 07:17:56;;;;;;;4.82;1.70;;;;;;;24.38;54.79;99278.06;4923160;28;102756;-60
2022/07/13 07:20:26;;;;;;;3.07;1.90;;;;;;;24.26;55.01;99263.31;4926662;28;103315;-60
2022/07/13 07:22:58;;;;;;;2.97;1.73;;;;;;;24.47;54.35;99255.34;4917482;28;103218;-59
2022/07/13 07:25:26;;;;;;;4.45;1.80;;;;;;;24.72;54.45;99248.63;4914832;28;104095;-59
2022/07/13 07:27:54;;;;;;;3.25;1.73;;;;;;;24.95;54.43;99253.13;4924110;28;102760;-60
2022/07/13 07:30:24;;;;;;;4.57;2.00;;;;;;;25.10;53.42;99249.34;4908529;28;103407;-60
2022/07/13 07:32:52;;;;;;;4.18;2.03;;;;;;;25.16;53.26;99243.19;4924559;28;103234;-61
2022/07/13 07:35:21;;;;;;;4.13;1.83;;;;;;;25.05;52.04;99249.06;4934525;28;102841;-61
2022/07/13 07:37:49;;;;;;;4.35;2.00;;;;;;;25.43;51.99;99241.63;4915447;28;102990;-61
2022/07/13 07:40:18;;;;;;;5.00;2.10;;;;;;;25.57;50.97;99240.72;4902637;28;103309;-61
2022/07/13 07:42:48;;;;;;;4.03;1.88;;;;;;;25.77;50.73;99238.19;4922855;28;103206;-61
2022/07/13 07:45:17;;;;;;;2.60;1.60;;;;;;;26.21;49.55;99238.81;4920390;28;102711;-60
2022/07/13 07:47:44;;;;;;;3.22;1.70;;;;;;;26.65;47.98;99241.16;4897368;28;102973;-61
2022/07/13 07:50:12;;;;;;;4.72;1.65;;;;;;;26.84;48.00;99243.16;4916139;28;103334;-61
2022/07/13 07:52:41;;;;;;;3.58;1.50;;;;;;;26.86;47.80;99243.78;4912063;28;103261;-60
2022/07/13 07:55:26;;;;;;;2.38;1.60;;;;;;;27.94;47.19;99240.94;4903289;28;103135;-61
2022/07/13 07:57:57;;;;;;;2.63;1.50;;;;;;;27.38;47.08;99240.44;4899922;28;102775;-61
2022/07/13 08:00:25;;;;;;;3.88;1.60;;;;;;;27.81;46.24;99243.66;4902668;28;103298;-61
2022/07/13 08:02:53;;;;;;;4.75;1.77;;;;;;;27.75;45.06;99240.94;4907035;28;103217;-61
2022/07/13 08:05:24;;;;;;;1.60;1.23;;;;;;;28.19;45.27;99239.31;4902903;28;102781;-61
2022/07/13 08:07:52;;;;;;;3.38;1.60;;;;;;;28.39;45.82;99235.72;4919511;28;103870;-61
2022/07/13 08:10:20;;;;;;;4.25;1.98;;;;;;;28.11;44.41;99236.81;4924099;28;103309;-61
2022/07/13 08:13:00;;;;;;;3.30;1.35;;;;;;;28.40;45.47;99240.94;4922305;28;103186;-61
2022/07/13 08:15:29;;;;;;;2.37;1.03;;;;;;;28.71;43.55;99234.84;4904853;28;102838;-61
2022/07/13 08:17:57;;;;;;;2.63;1.50;;;;;;;28.84;43.93;99233.94;4919436;28;102952;-61
2022/07/13 08:20:25;;;;;;;4.35;1.70;;;;;;;28.41;44.44;99230.91;4931081;28;103929;-61
2022/07/13 08:22:53;;;;;;;3.10;1.30;;;;;;;28.48;44.30;99226.28;4921069;28;103250;-61
2022/07/13 08:25:24;;;;;;;2.05;1.10;;;;;;;28.96;43.92;99219.47;4908356;28;102790;-61
2022/07/13 08:27:55;;;;;;;1.70;1.20;;;;;;;29.13;45.43;99226.09;4904867;28;102960;-61
2022/07/13 08:30:25;;;;;;;3.85;1.67;;;;;;;28.62;42.35;99222.50;4924058;28;103958;-61
2022/07/13 08:32:53;;;;;;;7.75;1.65;;;;;;;28.60;43.61;99219.16;4918927;28;103212;-61
2022/07/13 08:41:04;;;;;;;2.22;1.20;;;;;;;28.23;44.50;99212.56;4862238;28;103549;-61
2022/07/13 08:43:34;;;;;;;1.67;1.00;;;;;;;28.72;44.29;99210.16;4893316;28;103049;-61
2022/07/13 08:46:08;;;;;;;1.75;0.90;;;;;;;29.19;44.72;99208.88;4918729;28;102767;-62
2022/07/13 08:48:39;;;;;;;2.03;1.20;;;;;;;29.48;45.03;99214.81;4928141;28;102650;-61
2022/07/13 08:51:07;;;;;;;1.58;0.90;;;;;;;29.71;44.17;99209.63;4924004;28;103275;-61
2022/07/13 08:53:38;;;;;;;4.15;1.10;;;;;;;29.69;41.41;99203.56;4925199;28;103339;-61
2022/07/13 08:56:07;;;;;;;1.15;0.70;;;;;;;29.78;41.76;99207.69;4921495;28;102631;-61
2022/07/13 08:58:37;;;;;;;4.72;1.20;;;;;;;29.91;41.72;99202.16;4904694;28;102727;-62
2022/07/13 09:01:09;;;;;;;5.68;1.33;;;;;;;30.12;39.73;99200.94;4928364;28;103958;-61
2022/07/13 09:07:36;;;;;;;2.20;0.88;;;;;;;30.43;40.96;99190.75;4921795;28;102679;-61
2022/07/13 09:10:05;;;;;;;3.85;1.00;;;;;;;29.95;39.34;99191.66;4928523;28;102998;-61
2022/07/13 09:12:36;;;;;;;5.50;1.33;;;;;;;30.30;38.41;99199.06;4927889;28;103402;-62
2022/07/13 09:15:06;;;;;;;1.73;1.00;;;;;;;32.08;38.64;99198.38;4930507;28;103225;-62
2022/07/13 09:17:38;;;;;;;1.83;0.85;;;;;;;32.00;36.63;99195.13;4927108;28;102663;-61
2022/07/13 09:20:22;;;;;;;2.35;0.93;;;;;;;32.84;35.58;99194.63;4922686;28;102670;-62
2022/07/13 09:23:02;;;;;;;1.92;0.82;;;;;;;32.91;34.32;99205.41;4921725;28;104030;-61
2022/07/13 09:25:34;;;;;;;1.52;0.75;;;;;;;32.81;34.37;99202.47;4915113;28;103139;-62
2022/07/13 09:28:04;;;;;;;1.88;0.65;;;;;;;32.64;34.68;99205.97;4920874;28;102710;-61
2022/07/13 09:30:34;;;;;;;1.83;0.82;;;;;;;32.98;34.00;99201.47;4922219;28;102645;-60
2022/07/13 09:33:04;;;;;;;4.05;1.05;;;;;;;32.40;34.46;99198.81;4921082;28;103427;-61
2022/07/13 09:35:43;;;;;;;2.30;0.88;;;;;;;32.55;33.89;99196.47;4903444;28;104605;-61
2022/07/13 09:38:29;;;;;;;2.67;1.20;;;;;;;32.56;34.90;99192.63;4898454;28;102830;-61
2022/07/13 09:40:58;;;;;;;0.90;0.82;;;;;;;33.08;32.03;99195.38;4921047;28;104054;-61
2022/07/13 09:46:11;;;;;;;2.60;1.13;;;;;;;33.49;36.32;99191.53;4928805;28;103217;-60
2022/07/13 09:48:50;;;;;;;1.88;0.90;;;;;;;33.35;32.65;99195.63;4919989;28;102805;-61
2022/07/13 09:51:26;;;;;;;3.13;0.83;;;;;;;33.95;33.28;99190.38;4918592;28;102792;-61
2022/07/13 09:53:59;;;;;;;2.25;0.93;;;;;;;33.87;35.76;99188.91;4899453;28;104182;-61
2022/07/13 09:56:30;;;;;;;2.08;0.70;;;;;;;34.10;32.12;99194.25;4902137;28;104120;-61
2022/07/13 09:58:59;;;;;;;2.70;0.98;;;;;;;34.58;31.26;99185.38;4919889;28;102913;-61
2022/07/13 10:01:28;;;;;;;1.50;0.75;;;;;;;35.27;28.80;99196.66;4921533;28;102857;-61
2022/07/13 10:04:08;;;;;;;6.63;1.10;;;;;;;33.69;32.15;99189.97;4902950;28;103415;-62
2022/07/13 10:06:56;;;;;;;2.70;0.98;;;;;;;33.38;33.49;99185.00;4919287;28;103213;-62
2022/07/13 10:09:26;;;;;;;3.28;0.90;;;;;;;33.50;31.33;99185.78;4919408;28;102703;-62
2022/07/13 10:11:55;;;;;;;2.28;1.10;;;;;;;33.99;30.14;99188.81;4923819;28;102562;-61
2022/07/13 10:14:24;;;;;;;5.13;1.23;;;;;;;33.34;29.70;99185.75;4919958;28;103700;-61
2022/07/13 10:16:58;;;;;;;6.47;0.85;;;;;;;32.05;31.54;99187.06;4921729;28;103213;-61
2022/07/13 10:19:29;;;;;;;3.92;0.90;;;;;;;34.02;30.46;99180.09;4900588;28;102705;-62
2022/07/13 10:22:05;;;;;;;1.92;0.82;;;;;;;34.08;32.59;99179.13;4919584;28;104087;-62
2022/07/13 10:24:33;;;;;;;1.52;0.90;;;;;;;33.12;29.68;99180.97;4917914;28;104074;-62
2022/07/13 10:27:20;;;;;;;1.75;0.80;;;;;;;34.17;29.85;99177.59;4922547;28;103229;-62
2022/07/13 10:29:49;;;;;;;1.55;0.85;;;;;;;33.55;30.64;99177.66;4925117;28;102709;-62
2022/07/13 10:32:18;;;;;;;1.30;0.80;;;;;;;33.67;29.93;99175.69;4921481;28;102615;-62
2022/07/13 10:34:53;;;;;;;1.88;0.65;;;;;;;33.08;31.03;99185.28;4900203;28;103249;-62
2022/07/13 10:37:22;;;;;;;0.70;0.70;;;;;;;33.59;30.40;99178.84;4922284;28;103216;-62
2022/07/13 10:40:13;;;;;;;3.78;0.98;;;;;;;34.53;33.41;99171.53;4919322;28;102783;-62
2022/07/13 10:43:26;;;;;;;0.77;0.60;;;;;;;34.58;27.11;99168.09;4923052;28;102719;-62
2022/07/13 10:45:57;;;;;;;1.75;0.70;;;;;;;34.69;27.28;99167.97;4925856;28;103266;-62
2022/07/13 10:48:45;;;;;;;0.98;0.75;;;;;;;34.46;27.00;99164.59;4923184;28;103436;-62
2022/07/13 10:51:21;;;;;;;1.33;0.80;;;;;;;34.76;25.61;99174.06;4901291;28;102730;-62
2022/07/13 10:54:09;;;;;;;0.70;0.50;;;;;;;35.01;26.01;99167.22;4923787;28;103846;-64
2022/07/13 10:56:37;;;;;;;1.48;0.98;;;;;;;34.99;27.59;99164.75;4931276;28;103314;-62
2022/07/13 10:59:07;;;;;;;1.42;0.57;;;;;;;35.37;28.70;99155.56;4901440;28;103215;-62
2022/07/13 11:01:48;;;;;;;4.03;0.70;;;;;;;35.22;29.21;99149.91;4922871;28;102573;-62
2022/07/13 11:04:19;;;;;;;2.20;0.63;;;;;;;34.69;26.83;99147.91;4921660;28;103940;-62
2022/07/13 11:07:07;;;;;;;1.25;0.80;;;;;;;34.86;28.41;99144.03;4916797;28;103337;-62
2022/07/13 11:09:35;;;;;;;2.58;0.98;;;;;;;33.30;26.90;99147.06;4919815;28;103237;-62
2022/07/13 11:12:21;;;;;;;0.40;0.40;;;;;;;34.39;26.88;99148.31;4906101;28;102662;-62
2022/07/13 11:14:51;;;;;;;0.50;0.50;;;;;;;34.23;26.85;99140.97;4925771;28;105357;-62
2022/07/13 11:17:23;;;;;;;0.65;0.60;;;;;;;34.86;26.40;99138.53;4923162;28;103213;-62
2022/07/13 11:19:53;;;;;;;2.60;0.68;;;;;;;35.62;27.43;99142.09;4918454;28;102995;-62
2022/07/13 11:22:23;;;;;;;1.17;0.70;;;;;;;35.28;25.89;99124.16;4916896;28;102760;-62
2022/07/13 11:25:14;;;;;;;1.45;0.60;;;;;;;34.73;26.59;99122.44;4930827;28;102695;-62
2022/07/13 11:28:03;;;;;;;1.45;0.60;;;;;;;35.15;26.08;99130.06;4917465;28;104142;-63
2022/07/13 11:30:35;;;;;;;1.98;0.82;;;;;;;35.14;25.27;99123.75;4931414;28;103188;-62
2022/07/13 11:33:10;;;;;;;0.82;0.65;;;;;;;35.14;25.94;99122.94;4899944;28;102620;-62
2022/07/13 11:35:45;;;;;;;0.77;0.60;;;;;;;35.10;25.74;99116.28;4921846;28;103898;-62
2022/07/13 11:38:16;;;;;;;2.15;0.70;;;;;;;35.57;25.57;99111.81;4908864;28;104193;-63
2022/07/13 11:40:44;;;;;;;1.00;0.70;;;;;;;34.17;24.67;99114.56;4917615;28;103234;-62
2022/07/13 11:43:18;;;;;;;2.85;0.70;;;;;;;33.56;25.08;99110.00;4916335;28;103464;-62
2022/07/13 11:45:51;;;;;;;1.77;0.70;;;;;;;34.81;25.09;99119.25;4902464;28;102783;-62
2022/07/13 11:48:19;;;;;;;0.68;0.40;;;;;;;34.15;24.30;99119.47;4919927;28;103322;-62
2022/07/13 11:50:49;;;;;;;0.68;0.65;;;;;;;32.92;25.23;99111.31;4916808;28;103224;-63
2022/07/13 11:53:23;;;;;;;2.17;0.70;;;;;;;34.48;24.91;99102.91;4903261;28;102741;-63